• Join FlightAware (Why Join?)
  • Login
  • US Flag 
02:24AM EDT


 

Airport Tracker/Info


-or-


 

Live Flight TrackerFlight Track Log ✈ SKW3476 ✈ 13-Jul-2012 ✈ KSEA - KLGB

Flight Track Log - Related Links

Times and Time Zones

All times are in EDT time to prevent confusion due to time zone crossing. See the SKW3476 flight status page for this flight to view local times or setup timezone preferences in your user account.

Time Position Orientation Groundspeed Altitude Reporting Facility
EDT Latitude Longitude Course Direction KTS MPH feet Rate Location/Type
07:42PM 47.4306 -122.3097 181° South 173 199 1,000  Level Seattle Center
07:44PM 47.3725 -122.3108 180° South 204 235 3,100 1,680 Climbing Seattle Center
07:45PM 47.3028 -122.3111 176° South 261 300 4,900 2,100 Climbing Seattle Center
07:46PM 47.2239 -122.3036 147° Southeast 290 334 7,400 2,700 Climbing Seattle Center
07:47PM 47.1453 -122.2286 162° South 284 327 10,400 2,160 Climbing Seattle Center
07:48PM 47.0583 -122.1867 163° South 332 382 11,800 1,680 Climbing Seattle Center
07:49PM 46.9636 -122.1439 163° South 358 412 13,900 2,220 Climbing Seattle Center
07:50PM 46.8717 -122.1019 163° South 352 405 16,400 2,040 Climbing Seattle Center
07:51PM 46.7789 -122.0608 163° South 352 405 18,200 1,560 Climbing Seattle Center
07:52PM 46.6828 -122.0183 165° South 360 414 19,600 1,380 Climbing Seattle Center
07:53PM 46.5792 -121.9792 170° South 385 443 21,100 1,620 Climbing Seattle Center
07:54PM 46.4531 -121.9478 171° South 387 445 22,900 1,560 Climbing Seattle Center
07:55PM 46.3467 -121.9239 170° South 391 450 24,300 1,380 Climbing Seattle Center
07:56PM 46.2397 -121.8978 170° South 392 451 25,800 1,380 Climbing Seattle Center
07:57PM 46.1258 -121.8703 170° South 393 452 27,200 1,020 Climbing Seattle Center
07:58PM 46.0175 -121.8442 170° South 394 453 28,000 780 Climbing Seattle Center
07:59PM 45.9078 -121.8169 171° South 399 459 28,800 780 Climbing Seattle Center
08:00PM 45.7964 -121.7903 171° South 403 464 29,700 840 Climbing Seattle Center
08:01PM 45.6850 -121.7644 171° South 406 467 30,600 780 Climbing Seattle Center
08:02PM 45.5747 -121.7389 170° South 404 465 31,400 720 Climbing Seattle Center
08:03PM 45.4633 -121.7122 170° South 406 467 32,100 720 Climbing Seattle Center
08:04PM 45.3503 -121.6853 171° South 410 472 32,900 840 Climbing Seattle Center
08:05PM 45.2164 -121.6558 171° South 408 470 33,900 780 Climbing Seattle Center
08:06PM 45.1047 -121.6294 171° South 407 468 34,600 540 Climbing Seattle Center
08:07PM 44.9925 -121.6044 171° South 409 471 35,100 540 Climbing Seattle Center
08:08PM 44.8794 -121.5783 171° South 411 473 35,700 480 Climbing Seattle Center
08:09PM 44.7656 -121.5519 171° South 415 478 36,100 300 Climbing Seattle Center
08:10PM 44.6497 -121.5258 171° South 420 483 36,400 300 Climbing Seattle Center
08:11PM 44.5347 -121.5008 171° South 427 491 36,800 360 Climbing Seattle Center
08:12PM 44.4153 -121.4742 171° South 434 499 37,200 480 Climbing Seattle Center
08:13PM 44.2917 -121.4458 171° South 437 503 37,800 480 Climbing Seattle Center
08:14PM 44.1733 -121.4208 171° South 434 499 38,200 540 Climbing Seattle Center
08:15PM 44.0322 -121.3881 171° South 430 495 39,000 360 Climbing Seattle Center
08:16PM 43.9169 -121.3622 171° South 425 489 39,000  Level Seattle Center
08:17PM 43.8061 -121.3383 172° South 427 491 39,000  Level Seattle Center
08:18PM 43.6861 -121.3136 171° South 433 498 39,000  Level Seattle Center
08:19PM 43.5653 -121.2872 171° South 437 503 39,000  Level Seattle Center
08:20PM 43.4444 -121.2594 171° South 439 505 39,000  Level Seattle Center
08:21PM 43.3206 -121.2322 172° South 446 513 39,000  Level Seattle Center
08:22PM 43.1964 -121.2075 171° South 450 518 39,000  Level Seattle Center
08:23PM 43.0456 -121.1750 170° South 454 522 39,000  Level Seattle Center
08:24PM 42.9192 -121.1436 172° South 457 526 39,000  Level Seattle Center
08:25PM 42.7953 -121.1194 171° South 452 520 39,000  Level Seattle Center
08:27PM 42.6717 -121.0925 171° South 448 516 39,000  Level Seattle Center
08:28PM 42.5489 -121.0669 171° South 446 513 39,000  Level Seattle Center
08:29PM 42.4264 -121.0394 171° South 445 512 39,000  Level Seattle Center
08:30PM 42.3019 -121.0136 170° South 442 509 39,000  Level Seattle Center
08:31PM 42.1847 -120.9856 170° South 439 505 39,000  Level Seattle Center
08:32PM 42.0642 -120.9583 172° South 438 504 39,000  Level Seattle Center
08:33PM 41.9450 -120.9364 172° South 435 501 39,000  Level Seattle Center
08:34PM 41.8250 -120.9125 171° South 434 499 39,000  Level Seattle Center
08:35PM 41.7058 -120.8872 171° South 432 497 39,000  Level Seattle Center
08:36PM 41.5844 -120.8619 172° South 431 496 39,000  Level Seattle Center
08:37PM 41.4703 -120.8397 171° South 427 491 39,000  Level Seattle Center
08:38PM 41.3275 -120.8086 171° South 430 495 39,000  Level Seattle Center
08:39PM 41.2097 -120.7844 172° South 429 494 39,000  Level Seattle Center
08:40PM 41.0914 -120.7614 172° South 428 493 39,000  Level Seattle Center
08:41PM 40.9731 -120.7389 170° South 429 494 39,000  Level Seattle Center
08:42PM 40.8556 -120.7106 169° South 430 495 39,000  Level Seattle Center
08:43PM 40.7392 -120.6814 169° South 427 491 39,000  Level Seattle Center
08:44PM 40.6225 -120.6522 169° South 426 490 39,000  Level Seattle Center
08:45PM 40.5061 -120.6228 170° South 426 490 39,000  Level Seattle Center
08:46PM 40.3886 -120.5958 168° South 427 491 39,000  Level Seattle Center
08:46PM 40.3375 -120.5814 170° South 429 494 39,000  Level Oakland Center
08:47PM 40.2206 -120.5547 169° South 429 494 39,000  Level Oakland Center
08:48PM 40.1039 -120.5256 174° South 429 494 39,000  Level Oakland Center
08:49PM 39.9808 -120.5075 168° South 419 482 39,000  Level Oakland Center
08:50PM 39.8639 -120.4758 171° South 419 482 39,000  Level Oakland Center
08:51PM 39.7469 -120.4522 169° South 419 482 39,000  Level Oakland Center
08:52PM 39.6531 -120.4286 169° South 425 489 39,000  Level Oakland Center
08:53PM 39.5175 -120.3947 169° South 425 489 39,000  Level Oakland Center
08:54PM 39.4006 -120.3661 169° South 425 489 39,000  Level Oakland Center
08:55PM 39.2836 -120.3378 169° South 430 495 39,000  Level Oakland Center
08:56PM 39.1647 -120.3092 170° South 430 495 39,000  Level Oakland Center
08:57PM 39.0497 -120.2836 169° South 430 495 39,000  Level Oakland Center
08:58PM 38.9328 -120.2553 169° South 430 495 39,000  Level Oakland Center
08:59PM 38.8158 -120.2272 170° South 430 495 39,000  Level Oakland Center
09:00PM 38.7011 -120.2017 171° South 430 495 39,000  Level Oakland Center
09:01PM 38.5819 -120.1764 169° South 430 495 39,000  Level Oakland Center
09:02PM 38.4628 -120.1461 171° South 430 495 39,000  Level Oakland Center
09:03PM 38.3481 -120.1233 170° South 430 495 39,000  Level Oakland Center
09:04PM 38.2289 -120.0958 169° South 430 495 39,000  Level Oakland Center
09:05PM 38.1119 -120.0681 171° South 430 495 39,000  Level Oakland Center
09:06PM 37.9928 -120.0433 170° South 430 495 39,000  Level Oakland Center
09:07PM 37.8883 -120.0208 169° South 430 495 39,000  Level Oakland Center
09:08PM 37.7733 -119.9933 172° South 430 495 39,000  Level Oakland Center
09:09PM 37.6522 -119.9714 168° South 430 495 39,000  Level Oakland Center
09:10PM 37.5372 -119.9417 170° South 430 495 39,000  Level Oakland Center
09:11PM 37.4181 -119.9144 172° South 430 495 39,000  Level Oakland Center
09:12PM 37.3011 -119.8925 170° South 430 495 39,000  Level Oakland Center
09:13PM 37.1819 -119.8656 174° South 430 495 39,000  Level Oakland Center
09:14PM 37.0544 -119.8494 170° South 430 495 39,000  Level Oakland Center
09:15PM 36.9333 -119.8225 171° South 430 495 39,000  Level Oakland Center
09:16PM 36.8161 -119.7983 170° South 430 495 39,000  Level Oakland Center
09:17PM 36.6950 -119.7717 170° South 430 495 39,000  Level Oakland Center
09:19PM 36.4567 -119.7186 171° South 435 501 39,000  Level Oakland Center
09:20PM 36.3394 -119.6950 169° South 435 501 39,000  Level Oakland Center
09:21PM 36.1919 -119.6594 171° South 432 497 39,000  Level Los Angeles Center
09:22PM 36.0736 -119.6361 173° South 437 503 39,000  Level Los Angeles Center
09:23PM 35.9511 -119.6181 181° South 443 510 39,000  Level Los Angeles Center
09:24PM 35.8300 -119.6206 182° South 443 510 39,000  Level Los Angeles Center
09:25PM 35.7089 -119.6256 182° South 437 503 39,000  Level Los Angeles Center
09:26PM 35.5856 -119.6303 181° South 442 509 39,000  Level Los Angeles Center
09:27PM 35.4686 -119.6331 182° South 442 509 39,000  Level Los Angeles Center
09:28PM 35.3517 -119.6381 169° South 437 503 39,000  Level Los Angeles Center
09:29PM 35.2336 -119.6103 147° Southeast 432 497 39,000 -900 Level Los Angeles Center
09:30PM 35.1314 -119.5297 148° Southeast 414 476 37,200 -1,800 Descending Los Angeles Center
09:31PM 35.0417 -119.4600 145° Southeast 425 489 35,500 -1,980 Descending Los Angeles Center
09:32PM 34.9417 -119.3750 145° Southeast 431 496 33,300 -2,220 Descending Los Angeles Center
09:33PM 34.8417 -119.2900 145° Southeast 437 503 31,100 -1,920 Descending Los Angeles Center
09:34PM 34.7375 -119.2025 146° Southeast 448 516 29,500 -1,860 Descending Los Angeles Center
09:35PM 34.6353 -119.1181 148° Southeast 448 516 27,400 -2,100 Descending Los Angeles Center
09:36PM 34.5306 -119.0386 145° Southeast 448 516 25,300 -2,100 Descending Los Angeles Center
09:37PM 34.4283 -118.9519 150° Southeast 448 516 23,200 -2,160 Descending Los Angeles Center
09:38PM 34.3194 -118.8753 163° South 453 521 21,000 -2,160 Descending Los Angeles Center
09:39PM 34.2056 -118.8339 162° South 443 510 18,900 -2,100 Descending Los Angeles Center
09:40PM 34.1000 -118.7928 164° South 417 480 16,800 -1,860 Descending Los Angeles Center
09:41PM 33.9986 -118.7572 162° South 402 463 15,200 -1,440 Descending Los Angeles Center
09:42PM 33.8911 -118.7161 163° South 380 437 14,000 -600 Descending Los Angeles Center
09:43PM 33.7958 -118.6808 163° South 369 425 14,000 -120 Level Los Angeles Center
09:44PM 33.7006 -118.6456 164° South 364 419 13,800 -1,440 Descending Los Angeles Center
09:45PM 33.6072 -118.6128 148° Southeast 358 412 11,200 -2,400 Descending Los Angeles Center
09:46PM 33.5311 -118.5558 120° Southeast 341 392 9,000 -2,340 Descending Los Angeles Center
09:47PM 33.4950 -118.4800 69° East 283 326 6,600 -2,400 Descending Los Angeles Center
09:48PM 33.5217 -118.3961 73° East 240 276 4,200 -2,040 Descending Los Angeles Center
09:49PM 33.5464 -118.2969 75° East 260 299 2,600 -1,320 Descending Los Angeles Center
09:50PM 33.5644 -118.2178 55° Northeast 272 313 1,600 -540 Descending Los Angeles Center
09:51PM 33.6119 -118.1367 33° Northeast 270 311 1,600  Level Los Angeles Center
09:52PM 33.6583 -118.1003 28° Northeast 241 277 1,600  Level Los Angeles Center
09:53PM 33.7175 -118.0617 340° North 222 255 1,600 -60 Level Los Angeles Center
09:55PM 33.7667 -118.0833 309° West 189 217 1,500 -540 Descending Southern California TRACON
09:56PM 33.8000 -118.1333 309° West 132 152 500 -960 Descending Southern California TRACON